createdAt,value
2022-12-31T00:01:17.380Z,4.70
2022-12-31T00:03:44.656Z,4.80
2022-12-31T00:06:17.229Z,4.53
2022-12-31T00:08:45.092Z,4.53
2022-12-31T00:11:11.722Z,4.80
2022-12-31T00:13:38.753Z,5.25
2022-12-31T00:16:12.296Z,6.18
2022-12-31T00:18:39.244Z,6.25
2022-12-31T00:21:10.157Z,7.07
2022-12-31T00:23:37.304Z,8.05
2022-12-31T00:26:12.459Z,9.57
2022-12-31T00:28:39.763Z,10.35
2022-12-31T00:31:15.815Z,10.75
2022-12-31T00:33:43.169Z,11.10
2022-12-31T00:36:19.694Z,13.55
2022-12-31T00:38:47.869Z,13.02
2022-12-31T00:41:15.419Z,12.82
2022-12-31T00:43:42.615Z,12.13
2022-12-31T00:46:10.429Z,11.20
2022-12-31T00:48:37.202Z,10.05
2022-12-31T00:51:06.639Z,9.73
2022-12-31T00:53:33.364Z,8.88
2022-12-31T00:56:13.246Z,8.75
2022-12-31T00:58:39.887Z,7.97
2022-12-31T01:01:21.158Z,7.65
2022-12-31T01:03:49.923Z,8.07
2022-12-31T01:06:17.530Z,7.80
2022-12-31T01:08:44.186Z,8.25
2022-12-31T01:11:28.984Z,7.15
2022-12-31T01:14:01.110Z,6.78
2022-12-31T01:16:30.280Z,6.45
2022-12-31T01:19:02.789Z,7.00
2022-12-31T01:21:29.546Z,7.13
2022-12-31T01:23:56.196Z,6.85
2022-12-31T01:26:22.773Z,7.38
2022-12-31T01:28:49.630Z,7.15
2022-12-31T01:31:18.395Z,7.35
2022-12-31T01:33:45.797Z,7.40
2022-12-31T01:36:20.383Z,6.53
2022-12-31T01:38:52.339Z,6.45
2022-12-31T01:41:22.915Z,6.32
2022-12-31T01:43:56.220Z,5.93
2022-12-31T01:46:25.887Z,6.40
2022-12-31T01:48:56.992Z,6.22
2022-12-31T01:51:25.844Z,6.32
2022-12-31T01:53:52.468Z,5.82
2022-12-31T01:56:21.401Z,5.63
2022-12-31T01:58:50.759Z,5.15
2022-12-31T02:01:22.051Z,4.35
2022-12-31T02:03:48.691Z,3.92
2022-12-31T02:06:22.161Z,4.00
2022-12-31T02:08:49.235Z,3.80
2022-12-31T02:11:33.023Z,3.60
2022-12-31T02:14:07.596Z,3.40
2022-12-31T02:16:46.198Z,3.33
2022-12-31T02:19:50.384Z,2.53
2022-12-31T02:23:10.761Z,2.75
2022-12-31T02:25:49.541Z,2.50
2022-12-31T02:28:35.001Z,2.53
2022-12-31T02:31:08.528Z,2.20
2022-12-31T02:33:40.784Z,1.92
2022-12-31T02:36:13.091Z,2.00
2022-12-31T02:38:42.611Z,1.60
2022-12-31T02:41:35.879Z,2.40
2022-12-31T02:44:17.261Z,1.98
2022-12-31T02:46:51.800Z,1.90
2022-12-31T02:49:41.647Z,2.00
2022-12-31T02:52:23.413Z,1.80
2022-12-31T02:55:08.741Z,1.90
2022-12-31T02:57:41.523Z,1.25
2022-12-31T03:00:28.501Z,1.00
2022-12-31T03:02:56.015Z,1.02
2022-12-31T03:05:29.414Z,0.88
2022-12-31T03:07:56.109Z,0.80
2022-12-31T03:10:22.700Z,0.98
2022-12-31T03:12:49.726Z,1.00
2022-12-31T03:15:30.658Z,0.90
2022-12-31T03:18:03.849Z,0.80
2022-12-31T03:20:56.552Z,0.95
2022-12-31T03:23:35.408Z,0.90
2022-12-31T03:26:02.523Z,0.80
2022-12-31T03:28:30.313Z,0.90
2022-12-31T03:31:00.471Z,0.90
2022-12-31T03:33:31.265Z,0.90
2022-12-31T03:35:57.951Z,0.80
2022-12-31T03:38:24.629Z,0.80
2022-12-31T03:40:54.054Z,0.85
2022-12-31T03:43:20.849Z,1.20
2022-12-31T03:45:51.829Z,0.80
2022-12-31T03:48:19.070Z,1.10
2022-12-31T03:50:45.707Z,0.95
2022-12-31T03:53:12.343Z,1.08
2022-12-31T03:55:39.012Z,0.77
2022-12-31T03:58:05.958Z,0.68
2022-12-31T04:00:32.691Z,0.70
2022-12-31T04:02:59.317Z,0.60
2022-12-31T04:05:26.059Z,0.82
2022-12-31T04:07:52.748Z,0.80
2022-12-31T04:10:20.282Z,0.80
2022-12-31T04:12:46.966Z,0.80
2022-12-31T04:15:20.187Z,0.60
2022-12-31T04:17:47.385Z,0.93
2022-12-31T04:20:14.640Z,0.70
2022-12-31T04:22:41.248Z,0.50
2022-12-31T04:25:11.791Z,0.50
2022-12-31T04:27:43.577Z,0.50
2022-12-31T04:30:12.052Z,0.60
2022-12-31T04:32:38.629Z,0.70
2022-12-31T04:35:05.930Z,0.50
2022-12-31T04:37:32.566Z,0.50
2022-12-31T04:40:05.413Z,0.47
2022-12-31T04:42:33.137Z,0.60
2022-12-31T04:44:59.695Z,0.50
2022-12-31T04:47:26.251Z,0.50
2022-12-31T04:49:52.836Z,0.40
2022-12-31T04:52:19.412Z,0.60
2022-12-31T04:54:46.066Z,0.80
2022-12-31T04:57:12.707Z,0.70
2022-12-31T04:59:39.297Z,0.70
2022-12-31T05:02:06.055Z,0.70
2022-12-31T05:04:32.780Z,0.60
2022-12-31T05:06:59.372Z,0.70
2022-12-31T05:09:27.582Z,0.60
2022-12-31T05:11:54.444Z,0.77
2022-12-31T05:14:21.026Z,0.82
2022-12-31T05:16:47.717Z,0.80
2022-12-31T05:19:14.491Z,0.60
2022-12-31T05:21:41.071Z,0.82
2022-12-31T05:24:08.015Z,0.60
2022-12-31T05:26:34.961Z,0.77
2022-12-31T05:29:01.664Z,0.90
2022-12-31T05:31:28.299Z,0.82
2022-12-31T05:33:54.866Z,1.27
2022-12-31T05:36:21.465Z,1.17
2022-12-31T05:38:48.056Z,1.00
2022-12-31T05:41:14.653Z,0.93
2022-12-31T05:43:41.237Z,1.05
2022-12-31T05:46:08.060Z,0.70
2022-12-31T05:48:34.666Z,1.10
2022-12-31T05:51:01.268Z,1.00
2022-12-31T05:53:27.837Z,1.00
2022-12-31T05:55:54.406Z,1.05
2022-12-31T05:58:21.008Z,1.90
2022-12-31T06:00:47.611Z,1.00
2022-12-31T06:03:14.325Z,1.50
2022-12-31T06:05:42.374Z,1.70
2022-12-31T06:08:10.090Z,1.55
2022-12-31T06:10:36.971Z,1.30
2022-12-31T06:13:03.837Z,1.65
2022-12-31T06:15:30.577Z,1.50
2022-12-31T06:17:57.331Z,1.35
2022-12-31T06:20:23.948Z,0.80
2022-12-31T06:22:50.550Z,0.73
2022-12-31T06:25:17.114Z,0.63
2022-12-31T06:27:43.697Z,0.50
2022-12-31T06:30:11.038Z,0.50
2022-12-31T06:32:37.645Z,0.10
2022-12-31T06:35:05.057Z,0.10
2022-12-31T06:37:31.619Z,0.10
2022-12-31T06:39:58.184Z,0.20
2022-12-31T06:42:24.773Z,0.20
2022-12-31T06:44:51.331Z,0.28
2022-12-31T06:47:17.957Z,0.10
2022-12-31T06:49:44.504Z,0.20
2022-12-31T06:52:11.041Z,0.17
2022-12-31T06:54:37.901Z,0.10
2022-12-31T06:57:05.160Z,0.20
2022-12-31T06:59:32.069Z,0.03
2022-12-31T07:02:28.186Z,0.20
2022-12-31T07:05:18.767Z,0.10
2022-12-31T07:08:13.378Z,0.20
2022-12-31T07:11:02.756Z,0.30
2022-12-31T07:13:45.433Z,0.30
2022-12-31T07:16:43.383Z,0.40
2022-12-31T07:19:22.142Z,0.70
2022-12-31T07:21:49.497Z,0.80
2022-12-31T07:24:16.558Z,0.73
2022-12-31T07:26:43.164Z,1.33
2022-12-31T07:29:57.430Z,0.65
2022-12-31T07:32:36.170Z,0.50
2022-12-31T07:35:02.663Z,0.45
2022-12-31T07:37:56.713Z,0.50
2022-12-31T07:40:32.444Z,0.40
2022-12-31T07:43:09.105Z,0.35
2022-12-31T07:45:45.396Z,0.55
2022-12-31T07:48:23.682Z,0.30
2022-12-31T07:50:54.464Z,0.40
2022-12-31T07:53:22.057Z,0.30
2022-12-31T07:55:54.113Z,0.45
2022-12-31T07:58:38.179Z,1.00
2022-12-31T08:01:06.051Z,0.75
2022-12-31T08:03:42.073Z,0.90
2022-12-31T08:06:12.450Z,1.10
2022-12-31T08:09:06.688Z,0.80
2022-12-31T08:12:02.683Z,1.10
2022-12-31T08:14:30.239Z,1.13
2022-12-31T08:16:57.686Z,1.10
2022-12-31T08:19:28.388Z,1.20
2022-12-31T08:22:07.166Z,1.45
2022-12-31T08:24:56.775Z,1.73
2022-12-31T08:27:47.089Z,2.10
2022-12-31T08:30:15.654Z,2.42
2022-12-31T08:35:20.873Z,2.72
2022-12-31T08:37:48.534Z,3.28
2022-12-31T08:40:47.226Z,2.90
2022-12-31T08:43:33.462Z,2.83
2022-12-31T08:46:00.329Z,3.10
2022-12-31T08:48:31.239Z,3.17
2022-12-31T08:50:58.348Z,3.40
2022-12-31T08:53:25.248Z,3.15
2022-12-31T08:56:08.090Z,3.30
2022-12-31T08:58:49.195Z,3.00
2022-12-31T09:01:22.127Z,3.20
2022-12-31T09:04:12.555Z,3.35
2022-12-31T09:06:49.013Z,3.10
2022-12-31T09:09:24.229Z,2.70
2022-12-31T09:12:11.752Z,2.83
2022-12-31T09:14:50.339Z,2.67
2022-12-31T09:17:31.603Z,2.38
2022-12-31T09:19:58.492Z,2.60
2022-12-31T09:22:25.355Z,2.20
2022-12-31T09:24:52.104Z,2.30
2022-12-31T09:28:00.526Z,1.92
2022-12-31T09:30:29.156Z,1.75
2022-12-31T09:35:28.088Z,1.70
2022-12-31T09:37:58.916Z,1.20
2022-12-31T09:40:28.505Z,1.20
2022-12-31T09:43:42.646Z,1.30
2022-12-31T09:46:23.880Z,1.30
2022-12-31T09:49:01.642Z,1.10
2022-12-31T09:51:32.789Z,1.13
2022-12-31T09:54:09.863Z,1.58
2022-12-31T09:56:39.669Z,1.20
2022-12-31T09:59:13.489Z,1.20
2022-12-31T10:01:51.145Z,1.05
2022-12-31T10:04:42.742Z,0.90
2022-12-31T10:07:48.734Z,0.80
2022-12-31T10:10:23.556Z,1.00
2022-12-31T10:12:56.144Z,0.80
2022-12-31T10:15:50.489Z,0.80
2022-12-31T10:18:38.030Z,0.73
2022-12-31T10:21:25.903Z,0.70
2022-12-31T10:24:05.028Z,0.68
2022-12-31T10:26:55.668Z,0.95
2022-12-31T10:29:41.734Z,0.95
2022-12-31T10:32:15.896Z,0.90
2022-12-31T10:35:04.100Z,0.73
2022-12-31T10:37:44.268Z,1.27
2022-12-31T10:40:20.078Z,0.82
2022-12-31T10:43:05.565Z,0.93
2022-12-31T10:46:09.688Z,0.70
2022-12-31T10:48:45.065Z,0.50
2022-12-31T10:51:42.200Z,0.70
2022-12-31T10:54:54.636Z,0.70
2022-12-31T10:58:06.320Z,0.73
2022-12-31T11:00:51.703Z,0.90
2022-12-31T11:03:33.411Z,0.90
2022-12-31T11:06:37.391Z,1.38
2022-12-31T11:09:12.991Z,0.93
2022-12-31T11:12:01.337Z,1.15
2022-12-31T11:17:37.393Z,0.80
2022-12-31T11:20:23.736Z,0.88
2022-12-31T11:22:53.319Z,1.20
2022-12-31T11:25:33.716Z,1.05
2022-12-31T11:28:03.237Z,1.10
2022-12-31T11:30:35.877Z,1.05
2022-12-31T11:33:33.297Z,1.75
2022-12-31T11:36:38.418Z,1.93
2022-12-31T11:39:31.643Z,1.73
2022-12-31T11:42:21.179Z,1.70
2022-12-31T11:45:00.109Z,1.80
2022-12-31T11:47:32.701Z,2.35
2022-12-31T11:50:36.809Z,1.73
2022-12-31T11:53:16.892Z,1.73
2022-12-31T11:55:43.471Z,1.83
2022-12-31T11:58:18.420Z,1.90
2022-12-31T12:00:57.109Z,1.63
2022-12-31T12:03:24.657Z,1.67
2022-12-31T12:05:51.541Z,1.33
2022-12-31T12:08:18.164Z,1.25
2022-12-31T12:10:50.092Z,1.40
2022-12-31T12:13:23.785Z,1.30
2022-12-31T12:15:55.831Z,1.75
2022-12-31T12:18:50.785Z,1.25
2022-12-31T12:21:22.627Z,1.10
2022-12-31T12:24:05.697Z,1.20
2022-12-31T12:26:41.580Z,1.40
2022-12-31T12:29:15.328Z,1.25
2022-12-31T12:31:42.313Z,1.27
2022-12-31T12:34:31.467Z,1.30
2022-12-31T12:36:58.165Z,1.15
2022-12-31T12:39:29.659Z,1.20
2022-12-31T12:42:07.448Z,1.20
2022-12-31T12:44:35.853Z,1.20
2022-12-31T12:47:04.130Z,1.25
2022-12-31T12:50:00.286Z,1.08
2022-12-31T12:53:08.761Z,1.40
2022-12-31T12:55:44.220Z,1.25
2022-12-31T12:58:41.936Z,1.33
2022-12-31T13:01:53.253Z,1.40
2022-12-31T13:04:56.718Z,1.20
2022-12-31T13:07:58.255Z,1.20
2022-12-31T13:10:46.661Z,1.33
2022-12-31T13:16:03.591Z,1.00
2022-12-31T13:18:53.797Z,1.67
2022-12-31T13:21:33.617Z,0.98
2022-12-31T13:24:42.713Z,1.05
2022-12-31T13:27:27.490Z,0.95
2022-12-31T13:29:56.777Z,1.33
2022-12-31T13:32:37.516Z,0.90
2022-12-31T13:35:27.599Z,1.08
2022-12-31T13:38:05.782Z,1.00
2022-12-31T13:43:14.537Z,0.93
2022-12-31T13:45:43.482Z,1.13
2022-12-31T13:48:25.782Z,1.13
2022-12-31T13:51:02.100Z,1.10
2022-12-31T13:53:34.593Z,1.02
2022-12-31T13:56:04.305Z,1.27
2022-12-31T13:58:50.925Z,1.05
2022-12-31T14:01:32.063Z,1.48
2022-12-31T14:04:08.660Z,1.15
2022-12-31T14:06:47.685Z,1.20
2022-12-31T14:09:25.527Z,1.80
2022-12-31T14:12:18.486Z,1.13
2022-12-31T14:15:09.896Z,1.23
2022-12-31T14:18:23.924Z,1.50
2022-12-31T14:21:08.850Z,1.10
2022-12-31T14:24:24.910Z,1.45
2022-12-31T14:26:58.016Z,1.10
2022-12-31T14:29:41.179Z,1.42
2022-12-31T14:32:29.651Z,1.30
2022-12-31T14:35:02.068Z,1.20
2022-12-31T14:37:34.823Z,2.15
2022-12-31T14:40:44.854Z,1.58
2022-12-31T14:43:22.433Z,1.38
2022-12-31T14:45:48.980Z,1.53
2022-12-31T14:48:35.423Z,1.20
2022-12-31T14:51:02.479Z,1.77
2022-12-31T14:53:29.586Z,1.40
2022-12-31T14:55:58.226Z,1.75
2022-12-31T15:01:14.763Z,1.40
2022-12-31T15:03:45.796Z,1.40
2022-12-31T15:06:25.905Z,1.60
2022-12-31T15:08:55.154Z,1.20
2022-12-31T15:11:30.663Z,1.40
2022-12-31T15:14:15.980Z,1.50
2022-12-31T15:16:57.541Z,1.38
2022-12-31T15:19:59.358Z,1.60
2022-12-31T15:22:40.081Z,1.15
2022-12-31T15:25:41.359Z,1.20
2022-12-31T15:28:25.103Z,1.40
2022-12-31T15:30:52.147Z,1.10
2022-12-31T15:33:51.270Z,1.30
2022-12-31T15:36:20.692Z,1.23
2022-12-31T15:38:47.667Z,1.52
2022-12-31T15:41:20.370Z,1.10
2022-12-31T15:44:13.641Z,1.15
2022-12-31T15:46:41.805Z,1.00
2022-12-31T15:49:18.515Z,1.50
2022-12-31T15:52:00.681Z,1.00
2022-12-31T15:54:38.484Z,1.52
2022-12-31T15:57:09.440Z,1.67
2022-12-31T15:59:38.196Z,1.30
2022-12-31T16:04:35.146Z,1.88
2022-12-31T16:07:03.153Z,1.15
2022-12-31T16:09:33.601Z,1.15
2022-12-31T16:12:01.512Z,1.08
2022-12-31T16:14:35.822Z,1.13
2022-12-31T16:17:02.740Z,1.25
2022-12-31T16:19:43.485Z,1.25
2022-12-31T16:22:38.489Z,1.38
2022-12-31T16:27:54.261Z,2.20
2022-12-31T16:30:26.501Z,1.17
2022-12-31T16:32:54.235Z,1.60
2022-12-31T16:35:23.830Z,1.53
2022-12-31T16:38:03.803Z,1.65
2022-12-31T16:40:31.025Z,1.35
2022-12-31T16:42:57.748Z,1.30
2022-12-31T16:45:31.017Z,1.75
2022-12-31T16:48:16.399Z,1.25
2022-12-31T16:50:48.966Z,1.67
2022-12-31T16:53:19.200Z,1.70
2022-12-31T16:56:04.388Z,1.40
2022-12-31T16:58:33.611Z,1.50
2022-12-31T17:01:18.621Z,1.48
2022-12-31T17:03:49.752Z,1.48
2022-12-31T17:06:20.260Z,1.40
2022-12-31T17:08:55.896Z,1.60
2022-12-31T17:11:35.568Z,1.30
2022-12-31T17:14:08.244Z,1.35
2022-12-31T17:16:45.310Z,1.70
2022-12-31T17:19:34.613Z,1.70
2022-12-31T17:22:02.441Z,1.40
2022-12-31T17:24:29.359Z,2.38
2022-12-31T17:27:03.881Z,1.38
2022-12-31T17:29:30.550Z,1.30
2022-12-31T17:32:01.342Z,1.30
2022-12-31T17:34:33.945Z,1.30
2022-12-31T17:37:13.031Z,1.60
2022-12-31T17:39:50.765Z,1.40
2022-12-31T17:42:36.716Z,1.20
2022-12-31T17:45:07.734Z,1.60
2022-12-31T17:47:39.760Z,1.40
2022-12-31T17:50:19.448Z,1.70
2022-12-31T17:52:46.363Z,1.60
2022-12-31T17:55:13.174Z,1.67
2022-12-31T17:57:46.433Z,1.23
2022-12-31T18:00:20.912Z,1.85
2022-12-31T18:02:47.649Z,1.15
2022-12-31T18:05:16.653Z,1.05
2022-12-31T18:07:43.305Z,1.23
2022-12-31T18:10:10.142Z,1.60
2022-12-31T18:12:36.928Z,1.45
2022-12-31T18:15:03.821Z,1.17
2022-12-31T18:17:30.529Z,1.17
2022-12-31T18:20:05.789Z,1.63
2022-12-31T18:22:33.104Z,1.17
2022-12-31T18:24:59.680Z,1.30
2022-12-31T18:27:26.361Z,1.48
2022-12-31T18:29:53.059Z,1.60
2022-12-31T18:32:23.612Z,1.50
2022-12-31T18:34:50.313Z,1.17
2022-12-31T18:37:21.736Z,1.50
2022-12-31T18:39:49.121Z,1.25
2022-12-31T18:42:17.611Z,0.95
2022-12-31T18:44:45.358Z,1.00
2022-12-31T18:47:13.386Z,1.60
2022-12-31T18:49:40.995Z,1.35
2022-12-31T18:52:13.449Z,1.03
2022-12-31T18:54:40.065Z,1.48
2022-12-31T18:57:06.622Z,1.45
2022-12-31T18:59:33.196Z,1.30
2022-12-31T19:01:59.862Z,1.20
2022-12-31T19:04:28.351Z,1.23
2022-12-31T19:09:52.989Z,1.08
2022-12-31T19:12:11.777Z,1.23
2022-12-31T19:14:38.397Z,0.95
2022-12-31T19:19:30.361Z,1.45
2022-12-31T19:21:56.895Z,1.25
2022-12-31T19:24:27.572Z,1.40
2022-12-31T19:26:54.797Z,1.50
2022-12-31T19:29:24.477Z,1.38
2022-12-31T19:31:51.307Z,1.45
2022-12-31T19:34:17.987Z,1.25
2022-12-31T19:36:44.551Z,1.10
2022-12-31T19:39:20.145Z,1.40
2022-12-31T19:41:51.424Z,1.50
2022-12-31T19:44:22.867Z,1.40
2022-12-31T19:46:49.537Z,1.45
2022-12-31T19:49:16.409Z,1.80
2022-12-31T19:51:42.997Z,1.58
2022-12-31T19:54:12.436Z,1.30
2022-12-31T19:56:39.243Z,1.73
2022-12-31T19:59:06.527Z,1.70
2022-12-31T20:01:33.429Z,1.63
2022-12-31T20:04:00.120Z,1.35
2022-12-31T20:06:26.695Z,1.25
2022-12-31T20:08:53.315Z,1.35
2022-12-31T20:11:23.775Z,1.80
2022-12-31T20:13:52.278Z,1.63
2022-12-31T20:18:46.989Z,1.30
2022-12-31T20:21:17.823Z,1.30
2022-12-31T20:23:44.685Z,1.70
2022-12-31T20:26:11.562Z,1.50
2022-12-31T20:28:38.506Z,1.40
2022-12-31T20:31:16.564Z,1.08
2022-12-31T20:33:43.585Z,1.33
2022-12-31T20:36:12.164Z,1.40
2022-12-31T20:41:06.664Z,1.40
2022-12-31T20:43:34.354Z,1.67
2022-12-31T20:46:12.433Z,1.53
2022-12-31T20:48:41.317Z,1.48
2022-12-31T20:51:07.899Z,1.33
2022-12-31T20:53:34.453Z,1.45
2022-12-31T20:56:08.409Z,1.60
2022-12-31T20:58:35.045Z,2.28
2022-12-31T21:01:01.979Z,1.70
2022-12-31T21:04:03.723Z,1.77
2022-12-31T21:06:16.112Z,1.50
2022-12-31T21:08:43.120Z,1.60
2022-12-31T21:11:29.105Z,1.42
2022-12-31T21:13:58.960Z,1.70
2022-12-31T21:16:26.797Z,2.15
2022-12-31T21:18:54.288Z,2.10
2022-12-31T21:21:21.816Z,1.60
2022-12-31T21:23:48.384Z,1.83
2022-12-31T21:26:15.028Z,1.90
2022-12-31T21:28:41.985Z,1.90
2022-12-31T21:31:09.117Z,1.50
2022-12-31T21:33:35.705Z,1.70
2022-12-31T21:36:04.650Z,2.17
2022-12-31T21:38:31.516Z,2.05
2022-12-31T21:41:05.717Z,2.55
2022-12-31T21:43:32.327Z,1.48
2022-12-31T21:46:06.849Z,1.92
2022-12-31T21:48:33.910Z,2.00
2022-12-31T21:51:13.161Z,1.75
2022-12-31T21:53:40.251Z,1.65
2022-12-31T21:56:11.301Z,2.47
2022-12-31T21:59:16.475Z,1.70
2022-12-31T22:02:02.381Z,1.52
2022-12-31T22:05:00.885Z,2.05
2022-12-31T22:07:15.787Z,2.03
2022-12-31T22:09:42.391Z,2.20
2022-12-31T22:12:08.961Z,1.83
2022-12-31T22:14:35.609Z,2.00
2022-12-31T22:17:02.177Z,2.03
2022-12-31T22:19:28.748Z,2.08
2022-12-31T22:21:55.344Z,2.30
2022-12-31T22:24:21.911Z,1.90
2022-12-31T22:26:48.482Z,2.20
2022-12-31T22:29:15.061Z,1.90
2022-12-31T22:31:41.735Z,2.30
2022-12-31T22:34:08.443Z,1.73
2022-12-31T22:36:35.066Z,2.22
2022-12-31T22:39:01.658Z,2.33
2022-12-31T22:41:29.784Z,2.00
2022-12-31T22:44:05.224Z,2.10
2022-12-31T22:46:32.451Z,2.20
2022-12-31T22:48:59.985Z,2.05
2022-12-31T22:51:54.996Z,2.63
2022-12-31T22:54:14.895Z,2.25
2022-12-31T22:56:41.852Z,2.33
2022-12-31T22:59:09.198Z,2.40
2022-12-31T23:01:35.973Z,1.98
2022-12-31T23:04:03.098Z,2.13
2022-12-31T23:06:29.867Z,2.78
2022-12-31T23:09:15.113Z,2.45
2022-12-31T23:11:43.545Z,2.53
2022-12-31T23:14:34.699Z,2.47
2022-12-31T23:17:31.091Z,3.00
2022-12-31T23:20:18.234Z,3.00
2022-12-31T23:23:03.605Z,2.60
2022-12-31T23:25:41.574Z,2.95
2022-12-31T23:28:11.475Z,2.67
2022-12-31T23:30:39.787Z,2.88
2022-12-31T23:33:07.088Z,2.65
2022-12-31T23:35:34.076Z,2.67
2022-12-31T23:38:00.622Z,3.20
2022-12-31T23:40:34.362Z,3.20
2022-12-31T23:43:05.644Z,4.10
2022-12-31T23:45:33.726Z,3.78
2022-12-31T23:48:00.571Z,4.38
2022-12-31T23:50:27.217Z,4.57
2022-12-31T23:52:54.087Z,4.57
2022-12-31T23:55:21.093Z,4.53
2022-12-31T23:57:47.649Z,4.30
